Paso de la Patria, Argentina
Current Conditions -  °F | °C
As of 1:00 AM on Monday 24 Nov 2014 (Local Time) from SARC Reporting Station
Clear Clear  
Wind Chill: 70°   Ceiling: Unl
Heat Index: 70°   Visibility: 6mi
Dew Point: 61°   Wind: 2mph
Humidity: 73%   Direction: NA
Pressure: 29.74"   Gusts: NA
Location:  27.32°S, 58.58°W
Report Text: SARC 240400Z VRB02KT CAVOK 21/16 Q1007
Loading
Personal Weather Stations






























Interactive Weather Map New forecast layout! Learn more

10-Day Weather Forecast

Advertisements
Track Severe Weather on mobile